sensor_id;sensor_type;location;lat;lon;timestamp;temperature;humidity
21031;DHT22;61072;47.808;7.636;2023-09-19T00:01:30;19.90;99.90
21031;DHT22;61072;47.808;7.636;2023-09-19T00:03:58;19.90;99.90
21031;DHT22;61072;47.808;7.636;2023-09-19T00:06:25;19.80;99.90
21031;DHT22;61072;47.808;7.636;2023-09-19T00:08:52;19.90;99.90
21031;DHT22;61072;47.808;7.636;2023-09-19T00:11:21;19.80;99.90
21031;DHT22;61072;47.808;7.636;2023-09-19T00:13:47;19.80;99.90
21031;DHT22;61072;47.808;7.636;2023-09-19T00:16:16;19.80;99.90
21031;DHT22;61072;47.808;7.636;2023-09-19T00:18:46;19.80;99.90
21031;DHT22;61072;47.808;7.636;2023-09-19T00:21:12;19.70;99.90
21031;DHT22;61072;47.808;7.636;2023-09-19T00:23:39;19.60;99.90
21031;DHT22;61072;47.808;7.636;2023-09-19T00:26:07;19.60;99.90
21031;DHT22;61072;47.808;7.636;2023-09-19T00:28:34;19.60;99.90
21031;DHT22;61072;47.808;7.636;2023-09-19T00:31:01;19.50;99.90
21031;DHT22;61072;47.808;7.636;2023-09-19T00:33:29;19.50;99.90
21031;DHT22;61072;47.808;7.636;2023-09-19T00:35:56;19.40;99.90
21031;DHT22;61072;47.808;7.636;2023-09-19T00:38:23;19.50;99.90
21031;DHT22;61072;47.808;7.636;2023-09-19T00:40:53;19.50;99.90
21031;DHT22;61072;47.808;7.636;2023-09-19T00:43:22;19.40;99.90
21031;DHT22;61072;47.808;7.636;2023-09-19T00:45:52;19.50;99.90
21031;DHT22;61072;47.808;7.636;2023-09-19T00:48:23;19.50;99.90
21031;DHT22;61072;47.808;7.636;2023-09-19T00:50:51;19.50;99.90
21031;DHT22;61072;47.808;7.636;2023-09-19T00:53:20;19.50;99.90
21031;DHT22;61072;47.808;7.636;2023-09-19T00:55:49;19.40;99.90
21031;DHT22;61072;47.808;7.636;2023-09-19T00:58:16;19.50;99.90
21031;DHT22;61072;47.808;7.636;2023-09-19T01:00:43;19.40;99.90
21031;DHT22;61072;47.808;7.636;2023-09-19T01:03:11;19.40;99.90
21031;DHT22;61072;47.808;7.636;2023-09-19T01:05:39;19.40;99.90
21031;DHT22;61072;47.808;7.636;2023-09-19T01:08:06;19.40;99.90
21031;DHT22;61072;47.808;7.636;2023-09-19T01:10:33;19.40;99.90
21031;DHT22;61072;47.808;7.636;2023-09-19T01:13:13;19.40;99.90
21031;DHT22;61072;47.808;7.636;2023-09-19T01:15:51;19.50;99.90
21031;DHT22;61072;47.808;7.636;2023-09-19T01:18:27;19.50;99.90
21031;DHT22;61072;47.808;7.636;2023-09-19T01:23:40;19.50;99.90
21031;DHT22;61072;47.808;7.636;2023-09-19T01:28:53;19.50;99.90
21031;DHT22;61072;47.808;7.636;2023-09-19T01:31:24;19.50;99.90
21031;DHT22;61072;47.808;7.636;2023-09-19T01:33:55;19.50;99.90
21031;DHT22;61072;47.808;7.636;2023-09-19T01:36:35;19.50;99.90
21031;DHT22;61072;47.808;7.636;2023-09-19T01:39:04;19.50;99.90
21031;DHT22;61072;47.808;7.636;2023-09-19T01:42:19;19.50;99.90
21031;DHT22;61072;47.808;7.636;2023-09-19T01:47:08;19.50;99.90
21031;DHT22;61072;47.808;7.636;2023-09-19T01:49:42;19.40;99.90
21031;DHT22;61072;47.808;7.636;2023-09-19T01:52:13;19.50;99.90
21031;DHT22;61072;47.808;7.636;2023-09-19T01:54:48;19.50;99.90
21031;DHT22;61072;47.808;7.636;2023-09-19T01:59:43;19.60;99.90
21031;DHT22;61072;47.808;7.636;2023-09-19T02:02:12;19.50;99.90
21031;DHT22;61072;47.808;7.636;2023-09-19T02:04:39;19.50;99.90
21031;DHT22;61072;47.808;7.636;2023-09-19T02:07:06;19.50;99.90
21031;DHT22;61072;47.808;7.636;2023-09-19T02:09:32;19.50;99.90
21031;DHT22;61072;47.808;7.636;2023-09-19T02:12:02;19.50;99.90
21031;DHT22;61072;47.808;7.636;2023-09-19T02:14:30;19.50;99.90
21031;DHT22;61072;47.808;7.636;2023-09-19T02:16:57;19.50;99.90
21031;DHT22;61072;47.808;7.636;2023-09-19T02:19:24;19.50;99.90
21031;DHT22;61072;47.808;7.636;2023-09-19T02:21:50;19.50;99.90
21031;DHT22;61072;47.808;7.636;2023-09-19T02:24:17;19.50;99.90
21031;DHT22;61072;47.808;7.636;2023-09-19T02:26:44;19.40;99.90
21031;DHT22;61072;47.808;7.636;2023-09-19T02:29:10;19.40;99.90
21031;DHT22;61072;47.808;7.636;2023-09-19T02:31:39;19.40;99.90
21031;DHT22;61072;47.808;7.636;2023-09-19T02:34:06;19.50;99.90
21031;DHT22;61072;47.808;7.636;2023-09-19T02:36:33;19.40;99.90
21031;DHT22;61072;47.808;7.636;2023-09-19T02:39:00;19.40;99.90
21031;DHT22;61072;47.808;7.636;2023-09-19T02:41:26;19.40;99.90
21031;DHT22;61072;47.808;7.636;2023-09-19T02:43:55;19.40;99.90
21031;DHT22;61072;47.808;7.636;2023-09-19T02:46:23;19.40;99.90
21031;DHT22;61072;47.808;7.636;2023-09-19T02:48:50;19.40;99.90
21031;DHT22;61072;47.808;7.636;2023-09-19T02:51:16;19.30;99.90
21031;DHT22;61072;47.808;7.636;2023-09-19T02:53:43;19.30;99.90
21031;DHT22;61072;47.808;7.636;2023-09-19T02:56:09;19.30;99.90
21031;DHT22;61072;47.808;7.636;2023-09-19T02:58:38;19.30;99.90
21031;DHT22;61072;47.808;7.636;2023-09-19T03:01:09;19.30;99.90
21031;DHT22;61072;47.808;7.636;2023-09-19T03:03:38;19.30;99.90
21031;DHT22;61072;47.808;7.636;2023-09-19T03:06:06;19.30;99.90
21031;DHT22;61072;47.808;7.636;2023-09-19T03:08:35;19.20;99.90
21031;DHT22;61072;47.808;7.636;2023-09-19T03:11:03;19.20;99.90
21031;DHT22;61072;47.808;7.636;2023-09-19T03:13:30;19.10;99.90
21031;DHT22;61072;47.808;7.636;2023-09-19T03:15:57;19.10;99.90
21031;DHT22;61072;47.808;7.636;2023-09-19T03:18:24;19.10;99.90
21031;DHT22;61072;47.808;7.636;2023-09-19T03:20:53;19.00;99.90
21031;DHT22;61072;47.808;7.636;2023-09-19T03:23:21;19.00;99.90
21031;DHT22;61072;47.808;7.636;2023-09-19T03:25:48;19.00;99.90
21031;DHT22;61072;47.808;7.636;2023-09-19T03:28:15;19.00;99.90
21031;DHT22;61072;47.808;7.636;2023-09-19T03:30:42;19.00;99.90
21031;DHT22;61072;47.808;7.636;2023-09-19T03:33:09;19.00;99.90
21031;DHT22;61072;47.808;7.636;2023-09-19T03:35:39;19.00;99.90
21031;DHT22;61072;47.808;7.636;2023-09-19T03:38:06;19.10;99.90
21031;DHT22;61072;47.808;7.636;2023-09-19T03:40:32;19.00;99.90
21031;DHT22;61072;47.808;7.636;2023-09-19T03:43:02;19.10;99.90
21031;DHT22;61072;47.808;7.636;2023-09-19T03:45:29;19.10;99.90
21031;DHT22;61072;47.808;7.636;2023-09-19T03:47:55;19.10;99.90
21031;DHT22;61072;47.808;7.636;2023-09-19T03:50:22;19.00;99.90
21031;DHT22;61072;47.808;7.636;2023-09-19T03:52:49;19.10;99.90
21031;DHT22;61072;47.808;7.636;2023-09-19T03:55:15;19.00;99.90
21031;DHT22;61072;47.808;7.636;2023-09-19T03:57:42;18.90;99.90
21031;DHT22;61072;47.808;7.636;2023-09-19T04:00:09;19.00;99.90
21031;DHT22;61072;47.808;7.636;2023-09-19T04:02:38;18.90;99.90
21031;DHT22;61072;47.808;7.636;2023-09-19T04:05:06;19.00;99.90
21031;DHT22;61072;47.808;7.636;2023-09-19T04:07:33;18.90;99.90
21031;DHT22;61072;47.808;7.636;2023-09-19T04:10:01;18.90;99.90
21031;DHT22;61072;47.808;7.636;2023-09-19T04:12:28;18.90;99.90
21031;DHT22;61072;47.808;7.636;2023-09-19T04:14:54;18.90;99.90
21031;DHT22;61072;47.808;7.636;2023-09-19T04:17:21;18.80;99.90
21031;DHT22;61072;47.808;7.636;2023-09-19T04:19:48;18.80;99.90
21031;DHT22;61072;47.808;7.636;2023-09-19T04:22:14;18.90;99.90
21031;DHT22;61072;47.808;7.636;2023-09-19T04:24:41;18.80;99.90
21031;DHT22;61072;47.808;7.636;2023-09-19T04:27:08;18.80;99.90
21031;DHT22;61072;47.808;7.636;2023-09-19T04:29:36;18.80;99.90
21031;DHT22;61072;47.808;7.636;2023-09-19T04:32:04;18.80;99.90
21031;DHT22;61072;47.808;7.636;2023-09-19T04:34:32;18.80;99.90
21031;DHT22;61072;47.808;7.636;2023-09-19T04:37:01;18.80;99.90
21031;DHT22;61072;47.808;7.636;2023-09-19T04:39:28;18.80;99.90
21031;DHT22;61072;47.808;7.636;2023-09-19T04:41:55;18.70;99.90
21031;DHT22;61072;47.808;7.636;2023-09-19T04:44:22;18.80;99.90
21031;DHT22;61072;47.808;7.636;2023-09-19T04:46:48;18.80;99.90
21031;DHT22;61072;47.808;7.636;2023-09-19T04:49:15;18.80;99.90
21031;DHT22;61072;47.808;7.636;2023-09-19T04:51:42;18.80;99.90
21031;DHT22;61072;47.808;7.636;2023-09-19T04:54:09;18.70;99.90
21031;DHT22;61072;47.808;7.636;2023-09-19T04:56:35;18.70;99.90
21031;DHT22;61072;47.808;7.636;2023-09-19T04:59:02;18.70;99.90
21031;DHT22;61072;47.808;7.636;2023-09-19T05:01:29;18.60;99.90
21031;DHT22;61072;47.808;7.636;2023-09-19T05:03:56;18.50;99.90
21031;DHT22;61072;47.808;7.636;2023-09-19T05:06:23;18.50;99.90
21031;DHT22;61072;47.808;7.636;2023-09-19T05:08:50;18.50;99.90
21031;DHT22;61072;47.808;7.636;2023-09-19T05:11:18;18.50;99.90
21031;DHT22;61072;47.808;7.636;2023-09-19T05:13:45;18.50;99.90
21031;DHT22;61072;47.808;7.636;2023-09-19T05:16:11;18.50;99.90
21031;DHT22;61072;47.808;7.636;2023-09-19T05:18:38;18.50;99.90
21031;DHT22;61072;47.808;7.636;2023-09-19T05:21:06;18.50;99.90
21031;DHT22;61072;47.808;7.636;2023-09-19T05:23:32;18.50;99.90
21031;DHT22;61072;47.808;7.636;2023-09-19T05:25:59;18.50;99.90
21031;DHT22;61072;47.808;7.636;2023-09-19T05:28:26;18.50;99.90
21031;DHT22;61072;47.808;7.636;2023-09-19T05:30:53;18.50;99.90
21031;DHT22;61072;47.808;7.636;2023-09-19T05:33:20;18.50;99.90
21031;DHT22;61072;47.808;7.636;2023-09-19T05:35:49;18.60;99.90
21031;DHT22;61072;47.808;7.636;2023-09-19T05:38:16;18.60;99.90
21031;DHT22;61072;47.808;7.636;2023-09-19T05:40:45;18.60;99.90
21031;DHT22;61072;47.808;7.636;2023-09-19T05:43:13;18.60;99.90
21031;DHT22;61072;47.808;7.636;2023-09-19T05:45:41;18.60;99.90
21031;DHT22;61072;47.808;7.636;2023-09-19T05:48:11;18.60;99.90
21031;DHT22;61072;47.808;7.636;2023-09-19T05:50:40;18.60;99.90
21031;DHT22;61072;47.808;7.636;2023-09-19T05:53:06;18.60;99.90
21031;DHT22;61072;47.808;7.636;2023-09-19T05:55:33;18.50;99.90
21031;DHT22;61072;47.808;7.636;2023-09-19T05:58:00;18.60;99.90
21031;DHT22;61072;47.808;7.636;2023-09-19T06:00:26;18.70;99.90
21031;DHT22;61072;47.808;7.636;2023-09-19T06:02:58;18.60;99.90
21031;DHT22;61072;47.808;7.636;2023-09-19T06:05:25;18.70;99.90
21031;DHT22;61072;47.808;7.636;2023-09-19T06:07:58;18.70;99.90
21031;DHT22;61072;47.808;7.636;2023-09-19T06:10:34;18.70;99.90
21031;DHT22;61072;47.808;7.636;2023-09-19T06:13:04;18.70;99.90
21031;DHT22;61072;47.808;7.636;2023-09-19T06:15:32;18.70;99.90
21031;DHT22;61072;47.808;7.636;2023-09-19T06:18:00;18.70;99.90
21031;DHT22;61072;47.808;7.636;2023-09-19T06:20:28;18.70;99.90
21031;DHT22;61072;47.808;7.636;2023-09-19T06:22:56;18.70;99.90
21031;DHT22;61072;47.808;7.636;2023-09-19T06:25:23;18.70;99.90
21031;DHT22;61072;47.808;7.636;2023-09-19T06:27:50;18.70;99.90
21031;DHT22;61072;47.808;7.636;2023-09-19T06:30:21;18.70;99.90
21031;DHT22;61072;47.808;7.636;2023-09-19T06:32:48;18.80;99.90
21031;DHT22;61072;47.808;7.636;2023-09-19T06:35:15;18.70;99.90
21031;DHT22;61072;47.808;7.636;2023-09-19T06:37:42;18.80;99.90
21031;DHT22;61072;47.808;7.636;2023-09-19T06:40:11;18.80;99.90
21031;DHT22;61072;47.808;7.636;2023-09-19T06:42:45;18.80;99.90
21031;DHT22;61072;47.808;7.636;2023-09-19T06:45:15;18.80;99.90
21031;DHT22;61072;47.808;7.636;2023-09-19T06:47:46;18.90;99.90
21031;DHT22;61072;47.808;7.636;2023-09-19T06:50:16;18.90;99.90
21031;DHT22;61072;47.808;7.636;2023-09-19T06:52:45;18.90;99.90
21031;DHT22;61072;47.808;7.636;2023-09-19T06:55:14;18.90;99.90
21031;DHT22;61072;47.808;7.636;2023-09-19T06:57:42;18.90;99.90
21031;DHT22;61072;47.808;7.636;2023-09-19T07:00:12;18.80;99.90
21031;DHT22;61072;47.808;7.636;2023-09-19T07:02:42;18.80;99.90
21031;DHT22;61072;47.808;7.636;2023-09-19T07:05:09;18.70;99.90
21031;DHT22;61072;47.808;7.636;2023-09-19T07:07:36;18.80;99.90
21031;DHT22;61072;47.808;7.636;2023-09-19T07:10:03;18.90;99.90
21031;DHT22;61072;47.808;7.636;2023-09-19T07:12:34;18.90;99.90
21031;DHT22;61072;47.808;7.636;2023-09-19T07:15:01;18.90;99.90
21031;DHT22;61072;47.808;7.636;2023-09-19T07:17:28;18.90;99.90
21031;DHT22;61072;47.808;7.636;2023-09-19T07:19:56;18.90;99.90
21031;DHT22;61072;47.808;7.636;2023-09-19T07:22:26;18.90;99.90
21031;DHT22;61072;47.808;7.636;2023-09-19T07:24:53;19.00;99.90
21031;DHT22;61072;47.808;7.636;2023-09-19T07:27:19;19.00;99.90
21031;DHT22;61072;47.808;7.636;2023-09-19T07:29:46;19.20;99.90
21031;DHT22;61072;47.808;7.636;2023-09-19T07:32:16;19.20;99.90
21031;DHT22;61072;47.808;7.636;2023-09-19T07:34:43;19.30;99.90
21031;DHT22;61072;47.808;7.636;2023-09-19T07:37:11;19.30;99.90
21031;DHT22;61072;47.808;7.636;2023-09-19T07:39:39;19.30;99.90
21031;DHT22;61072;47.808;7.636;2023-09-19T07:42:07;19.40;99.90
21031;DHT22;61072;47.808;7.636;2023-09-19T07:44:37;19.40;99.90
21031;DHT22;61072;47.808;7.636;2023-09-19T07:47:04;19.40;99.90
21031;DHT22;61072;47.808;7.636;2023-09-19T07:49:31;19.40;99.90
21031;DHT22;61072;47.808;7.636;2023-09-19T07:51:58;19.40;99.90
21031;DHT22;61072;47.808;7.636;2023-09-19T07:54:25;19.40;99.90
21031;DHT22;61072;47.808;7.636;2023-09-19T07:56:53;19.50;99.90
21031;DHT22;61072;47.808;7.636;2023-09-19T07:59:20;19.40;99.90
21031;DHT22;61072;47.808;7.636;2023-09-19T08:01:47;19.40;99.90
21031;DHT22;61072;47.808;7.636;2023-09-19T08:04:14;19.40;99.90
21031;DHT22;61072;47.808;7.636;2023-09-19T08:06:41;19.40;99.90
21031;DHT22;61072;47.808;7.636;2023-09-19T08:09:08;19.40;99.90
21031;DHT22;61072;47.808;7.636;2023-09-19T08:11:37;19.40;99.90
21031;DHT22;61072;47.808;7.636;2023-09-19T08:14:03;19.50;99.90
21031;DHT22;61072;47.808;7.636;2023-09-19T08:16:32;19.50;99.90
21031;DHT22;61072;47.808;7.636;2023-09-19T08:18:59;19.50;99.90
21031;DHT22;61072;47.808;7.636;2023-09-19T08:21:26;19.40;99.90
21031;DHT22;61072;47.808;7.636;2023-09-19T08:23:55;19.50;99.90
21031;DHT22;61072;47.808;7.636;2023-09-19T08:26:23;19.60;99.90
21031;DHT22;61072;47.808;7.636;2023-09-19T08:28:50;19.60;99.90
21031;DHT22;61072;47.808;7.636;2023-09-19T08:31:18;19.60;99.90
21031;DHT22;61072;47.808;7.636;2023-09-19T08:33:44;19.70;99.90
21031;DHT22;61072;47.808;7.636;2023-09-19T08:36:17;19.80;99.90
21031;DHT22;61072;47.808;7.636;2023-09-19T08:38:44;19.90;99.90
21031;DHT22;61072;47.808;7.636;2023-09-19T08:41:11;19.90;99.90
21031;DHT22;61072;47.808;7.636;2023-09-19T08:43:38;20.00;99.90
21031;DHT22;61072;47.808;7.636;2023-09-19T08:46:14;20.00;99.90
21031;DHT22;61072;47.808;7.636;2023-09-19T08:49:26;20.00;99.90
21031;DHT22;61072;47.808;7.636;2023-09-19T08:51:44;20.00;99.90
21031;DHT22;61072;47.808;7.636;2023-09-19T08:54:22;20.10;99.90
21031;DHT22;61072;47.808;7.636;2023-09-19T08:56:50;20.10;99.90
21031;DHT22;61072;47.808;7.636;2023-09-19T08:59:16;20.10;99.90
21031;DHT22;61072;47.808;7.636;2023-09-19T09:01:44;20.20;99.90
21031;DHT22;61072;47.808;7.636;2023-09-19T09:04:12;20.30;99.90
21031;DHT22;61072;47.808;7.636;2023-09-19T09:06:41;20.30;99.90
21031;DHT22;61072;47.808;7.636;2023-09-19T09:09:09;20.40;99.90
21031;DHT22;61072;47.808;7.636;2023-09-19T09:11:37;20.40;99.90
21031;DHT22;61072;47.808;7.636;2023-09-19T09:14:09;20.40;99.90
21031;DHT22;61072;47.808;7.636;2023-09-19T09:16:36;20.40;99.90
21031;DHT22;61072;47.808;7.636;2023-09-19T09:19:03;20.40;99.90
21031;DHT22;61072;47.808;7.636;2023-09-19T09:21:31;20.40;99.90
21031;DHT22;61072;47.808;7.636;2023-09-19T09:26:47;20.40;99.90
21031;DHT22;61072;47.808;7.636;2023-09-19T09:29:16;20.40;99.90
21031;DHT22;61072;47.808;7.636;2023-09-19T09:31:46;20.40;99.90
21031;DHT22;61072;47.808;7.636;2023-09-19T09:34:15;20.30;99.90
21031;DHT22;61072;47.808;7.636;2023-09-19T09:36:42;20.30;99.90
21031;DHT22;61072;47.808;7.636;2023-09-19T09:39:14;20.40;99.90
21031;DHT22;61072;47.808;7.636;2023-09-19T09:41:45;20.40;99.90
21031;DHT22;61072;47.808;7.636;2023-09-19T09:44:14;20.40;99.90
21031;DHT22;61072;47.808;7.636;2023-09-19T09:46:42;20.30;99.90
21031;DHT22;61072;47.808;7.636;2023-09-19T09:49:24;20.40;99.90
21031;DHT22;61072;47.808;7.636;2023-09-19T09:52:05;20.40;99.90
21031;DHT22;61072;47.808;7.636;2023-09-19T09:54:37;20.40;99.90
21031;DHT22;61072;47.808;7.636;2023-09-19T09:57:08;20.40;99.90
21031;DHT22;61072;47.808;7.636;2023-09-19T09:59:44;20.50;99.90
21031;DHT22;61072;47.808;7.636;2023-09-19T10:02:14;20.50;99.90
21031;DHT22;61072;47.808;7.636;2023-09-19T10:04:47;20.60;99.90
21031;DHT22;61072;47.808;7.636;2023-09-19T10:07:34;20.70;99.90
21031;DHT22;61072;47.808;7.636;2023-09-19T10:10:06;20.90;99.90
21031;DHT22;61072;47.808;7.636;2023-09-19T10:12:43;21.00;99.90
21031;DHT22;61072;47.808;7.636;2023-09-19T10:15:12;21.10;99.90
21031;DHT22;61072;47.808;7.636;2023-09-19T10:17:43;21.20;99.90
21031;DHT22;61072;47.808;7.636;2023-09-19T10:20:11;21.30;99.90
21031;DHT22;61072;47.808;7.636;2023-09-19T10:22:53;21.40;99.90
21031;DHT22;61072;47.808;7.636;2023-09-19T10:25:27;21.40;99.90
21031;DHT22;61072;47.808;7.636;2023-09-19T10:28:00;21.40;99.90
21031;DHT22;61072;47.808;7.636;2023-09-19T10:30:29;21.40;99.90
21031;DHT22;61072;47.808;7.636;2023-09-19T10:33:01;21.40;99.90
21031;DHT22;61072;47.808;7.636;2023-09-19T10:35:28;21.30;99.90
21031;DHT22;61072;47.808;7.636;2023-09-19T10:38:01;21.20;99.90
21031;DHT22;61072;47.808;7.636;2023-09-19T10:40:29;21.10;99.90
21031;DHT22;61072;47.808;7.636;2023-09-19T10:43:03;21.00;99.90
21031;DHT22;61072;47.808;7.636;2023-09-19T10:45:35;21.00;99.90
21031;DHT22;61072;47.808;7.636;2023-09-19T10:48:05;21.00;99.90
21031;DHT22;61072;47.808;7.636;2023-09-19T10:50:35;21.00;99.90
21031;DHT22;61072;47.808;7.636;2023-09-19T10:53:04;21.00;99.90
21031;DHT22;61072;47.808;7.636;2023-09-19T10:55:34;21.00;99.90
21031;DHT22;61072;47.808;7.636;2023-09-19T10:58:02;21.00;99.90
21031;DHT22;61072;47.808;7.636;2023-09-19T11:00:55;21.00;99.90
21031;DHT22;61072;47.808;7.636;2023-09-19T11:03:23;21.10;99.90
21031;DHT22;61072;47.808;7.636;2023-09-19T11:06:00;21.10;99.90
21031;DHT22;61072;47.808;7.636;2023-09-19T11:08:27;21.20;99.90
21031;DHT22;61072;47.808;7.636;2023-09-19T11:10:53;21.20;99.90
21031;DHT22;61072;47.808;7.636;2023-09-19T11:26:44;21.40;99.90
21031;DHT22;61072;47.808;7.636;2023-09-19T11:29:24;21.40;99.90
21031;DHT22;61072;47.808;7.636;2023-09-19T11:31:51;21.40;99.90
21031;DHT22;61072;47.808;7.636;2023-09-19T11:34:54;21.40;99.90
21031;DHT22;61072;47.808;7.636;2023-09-19T11:42:46;21.50;99.90
21031;DHT22;61072;47.808;7.636;2023-09-19T11:46:00;21.50;99.90
21031;DHT22;61072;47.808;7.636;2023-09-19T11:48:18;21.60;99.90
21031;DHT22;61072;47.808;7.636;2023-09-19T11:50:45;21.70;99.90
21031;DHT22;61072;47.808;7.636;2023-09-19T11:53:13;21.80;99.90
21031;DHT22;61072;47.808;7.636;2023-09-19T11:55:42;22.00;99.90
21031;DHT22;61072;47.808;7.636;2023-09-19T11:58:09;22.10;99.90
21031;DHT22;61072;47.808;7.636;2023-09-19T12:00:38;22.30;99.90
21031;DHT22;61072;47.808;7.636;2023-09-19T12:03:09;22.50;99.90
21031;DHT22;61072;47.808;7.636;2023-09-19T12:05:37;22.60;99.90
21031;DHT22;61072;47.808;7.636;2023-09-19T12:08:04;22.70;99.90
21031;DHT22;61072;47.808;7.636;2023-09-19T12:10:47;22.80;99.90
21031;DHT22;61072;47.808;7.636;2023-09-19T12:13:17;22.90;99.90
21031;DHT22;61072;47.808;7.636;2023-09-19T12:15:44;22.90;99.90
21031;DHT22;61072;47.808;7.636;2023-09-19T12:18:30;22.70;99.90
21031;DHT22;61072;47.808;7.636;2023-09-19T12:20:57;22.70;99.90
21031;DHT22;61072;47.808;7.636;2023-09-19T12:23:29;22.60;99.90
21031;DHT22;61072;47.808;7.636;2023-09-19T12:25:56;22.50;99.90
21031;DHT22;61072;47.808;7.636;2023-09-19T12:28:26;22.40;99.90
21031;DHT22;61072;47.808;7.636;2023-09-19T12:30:53;22.40;99.90
21031;DHT22;61072;47.808;7.636;2023-09-19T12:33:21;22.40;99.90
21031;DHT22;61072;47.808;7.636;2023-09-19T12:35:52;22.40;99.90
21031;DHT22;61072;47.808;7.636;2023-09-19T12:38:23;22.30;99.90
21031;DHT22;61072;47.808;7.636;2023-09-19T12:40:51;22.30;99.90
21031;DHT22;61072;47.808;7.636;2023-09-19T12:43:18;22.30;99.90
21031;DHT22;61072;47.808;7.636;2023-09-19T12:45:45;22.30;99.90
21031;DHT22;61072;47.808;7.636;2023-09-19T12:48:20;22.30;99.90
21031;DHT22;61072;47.808;7.636;2023-09-19T12:53:32;22.30;99.90
21031;DHT22;61072;47.808;7.636;2023-09-19T12:56:00;22.30;99.90
21031;DHT22;61072;47.808;7.636;2023-09-19T12:58:27;22.30;99.90
21031;DHT22;61072;47.808;7.636;2023-09-19T13:00:57;22.40;99.90
21031;DHT22;61072;47.808;7.636;2023-09-19T13:05:55;22.40;99.90
21031;DHT22;61072;47.808;7.636;2023-09-19T13:08:28;22.50;99.90
21031;DHT22;61072;47.808;7.636;2023-09-19T13:10:59;22.50;99.90
21031;DHT22;61072;47.808;7.636;2023-09-19T13:13:26;22.60;99.90
21031;DHT22;61072;47.808;7.636;2023-09-19T13:15:55;22.60;99.90
21031;DHT22;61072;47.808;7.636;2023-09-19T13:18:24;22.60;99.90
21031;DHT22;61072;47.808;7.636;2023-09-19T13:21:13;22.60;99.90
21031;DHT22;61072;47.808;7.636;2023-09-19T13:23:42;22.60;99.90
21031;DHT22;61072;47.808;7.636;2023-09-19T13:26:10;22.60;99.90
21031;DHT22;61072;47.808;7.636;2023-09-19T13:28:40;22.60;99.90
21031;DHT22;61072;47.808;7.636;2023-09-19T13:31:06;22.60;99.90
21031;DHT22;61072;47.808;7.636;2023-09-19T13:33:33;22.70;99.90
21031;DHT22;61072;47.808;7.636;2023-09-19T13:36:00;22.70;99.90
21031;DHT22;61072;47.808;7.636;2023-09-19T13:38:26;22.70;99.90
21031;DHT22;61072;47.808;7.636;2023-09-19T13:40:53;22.70;99.90
21031;DHT22;61072;47.808;7.636;2023-09-19T13:43:20;22.70;99.90
21031;DHT22;61072;47.808;7.636;2023-09-19T13:45:48;22.70;99.90
21031;DHT22;61072;47.808;7.636;2023-09-19T13:48:16;22.70;99.90
21031;DHT22;61072;47.808;7.636;2023-09-19T13:50:46;22.70;99.90
21031;DHT22;61072;47.808;7.636;2023-09-19T13:53:13;22.70;99.90
21031;DHT22;61072;47.808;7.636;2023-09-19T13:55:40;22.70;99.90
21031;DHT22;61072;47.808;7.636;2023-09-19T13:58:07;22.70;99.90
21031;DHT22;61072;47.808;7.636;2023-09-19T14:00:37;22.70;99.90
21031;DHT22;61072;47.808;7.636;2023-09-19T14:03:05;22.70;99.90
21031;DHT22;61072;47.808;7.636;2023-09-19T14:05:31;22.70;99.90
21031;DHT22;61072;47.808;7.636;2023-09-19T14:07:59;22.70;99.90
21031;DHT22;61072;47.808;7.636;2023-09-19T14:10:26;22.70;99.90
21031;DHT22;61072;47.808;7.636;2023-09-19T14:12:54;22.70;99.90
21031;DHT22;61072;47.808;7.636;2023-09-19T14:15:20;22.60;99.90
21031;DHT22;61072;47.808;7.636;2023-09-19T14:17:56;22.60;99.90
21031;DHT22;61072;47.808;7.636;2023-09-19T14:20:23;22.60;99.90
21031;DHT22;61072;47.808;7.636;2023-09-19T14:22:50;22.60;99.90
21031;DHT22;61072;47.808;7.636;2023-09-19T14:25:17;22.60;99.90
21031;DHT22;61072;47.808;7.636;2023-09-19T14:27:43;22.60;99.90
21031;DHT22;61072;47.808;7.636;2023-09-19T14:30:10;22.60;99.90
21031;DHT22;61072;47.808;7.636;2023-09-19T14:32:37;22.60;99.90
21031;DHT22;61072;47.808;7.636;2023-09-19T14:35:05;22.60;99.90
21031;DHT22;61072;47.808;7.636;2023-09-19T14:37:32;22.60;99.90
21031;DHT22;61072;47.808;7.636;2023-09-19T14:39:58;22.60;99.90
21031;DHT22;61072;47.808;7.636;2023-09-19T14:42:25;22.60;99.90
21031;DHT22;61072;47.808;7.636;2023-09-19T14:44:52;22.60;99.90
21031;DHT22;61072;47.808;7.636;2023-09-19T14:47:18;22.60;99.90
21031;DHT22;61072;47.808;7.636;2023-09-19T14:49:45;22.60;99.90
21031;DHT22;61072;47.808;7.636;2023-09-19T14:52:12;22.60;99.90
21031;DHT22;61072;47.808;7.636;2023-09-19T14:54:42;22.60;99.90
21031;DHT22;61072;47.808;7.636;2023-09-19T14:57:09;22.60;99.90
21031;DHT22;61072;47.808;7.636;2023-09-19T14:59:36;22.60;99.90
21031;DHT22;61072;47.808;7.636;2023-09-19T15:02:06;22.50;99.90
21031;DHT22;61072;47.808;7.636;2023-09-19T15:04:33;22.60;99.90
21031;DHT22;61072;47.808;7.636;2023-09-19T15:07:00;22.60;99.90
21031;DHT22;61072;47.808;7.636;2023-09-19T15:09:27;22.60;99.90
21031;DHT22;61072;47.808;7.636;2023-09-19T15:11:54;22.60;99.90
21031;DHT22;61072;47.808;7.636;2023-09-19T15:14:23;22.50;99.90
21031;DHT22;61072;47.808;7.636;2023-09-19T15:16:51;22.50;99.90
21031;DHT22;61072;47.808;7.636;2023-09-19T15:19:18;22.50;99.90
21031;DHT22;61072;47.808;7.636;2023-09-19T15:21:45;22.50;99.90
21031;DHT22;61072;47.808;7.636;2023-09-19T15:24:12;22.50;99.90
21031;DHT22;61072;47.808;7.636;2023-09-19T15:26:38;22.50;99.90
21031;DHT22;61072;47.808;7.636;2023-09-19T15:29:10;22.50;99.90
21031;DHT22;61072;47.808;7.636;2023-09-19T15:31:36;22.50;99.90
21031;DHT22;61072;47.808;7.636;2023-09-19T15:34:04;22.50;99.90
21031;DHT22;61072;47.808;7.636;2023-09-19T15:36:31;22.50;99.90
21031;DHT22;61072;47.808;7.636;2023-09-19T15:39:02;22.40;99.90
21031;DHT22;61072;47.808;7.636;2023-09-19T15:41:30;22.40;99.90
21031;DHT22;61072;47.808;7.636;2023-09-19T15:43:58;22.40;99.90
21031;DHT22;61072;47.808;7.636;2023-09-19T15:46:28;22.40;99.90
21031;DHT22;61072;47.808;7.636;2023-09-19T15:49:00;22.40;99.90
21031;DHT22;61072;47.808;7.636;2023-09-19T15:51:27;22.30;99.90
21031;DHT22;61072;47.808;7.636;2023-09-19T15:53:54;22.30;99.90
21031;DHT22;61072;47.808;7.636;2023-09-19T15:56:22;22.30;99.90
21031;DHT22;61072;47.808;7.636;2023-09-19T15:58:50;22.30;99.90
21031;DHT22;61072;47.808;7.636;2023-09-19T16:01:17;22.30;99.90
21031;DHT22;61072;47.808;7.636;2023-09-19T16:03:53;22.30;99.90
21031;DHT22;61072;47.808;7.636;2023-09-19T16:06:26;22.20;99.90
21031;DHT22;61072;47.808;7.636;2023-09-19T16:08:56;22.20;99.90
21031;DHT22;61072;47.808;7.636;2023-09-19T16:11:25;22.20;99.90
21031;DHT22;61072;47.808;7.636;2023-09-19T16:13:53;22.20;99.90
21031;DHT22;61072;47.808;7.636;2023-09-19T16:16:21;22.10;99.90
21031;DHT22;61072;47.808;7.636;2023-09-19T16:18:50;22.20;99.90